sensor_id;sensor_type;location;lat;lon;timestamp;P1;durP1;ratioP1;P2;durP2;ratioP2
70433;SDS011;57876;47.792;12.960;2022-09-16T00:00:42;4.97;;;1.40;;
70433;SDS011;57876;47.792;12.960;2022-09-16T00:03:07;4.45;;;1.35;;
70433;SDS011;57876;47.792;12.960;2022-09-16T00:05:32;4.70;;;1.40;;
70433;SDS011;57876;47.792;12.960;2022-09-16T00:07:57;4.72;;;1.20;;
70433;SDS011;57876;47.792;12.960;2022-09-16T00:10:22;4.20;;;1.10;;
70433;SDS011;57876;47.792;12.960;2022-09-16T00:12:47;4.50;;;1.30;;
70433;SDS011;57876;47.792;12.960;2022-09-16T00:15:12;4.23;;;1.10;;
70433;SDS011;57876;47.792;12.960;2022-09-16T00:17:37;6.57;;;1.38;;
70433;SDS011;57876;47.792;12.960;2022-09-16T00:20:01;4.50;;;1.10;;
70433;SDS011;57876;47.792;12.960;2022-09-16T00:22:27;4.70;;;1.13;;
70433;SDS011;57876;47.792;12.960;2022-09-16T00:24:51;5.40;;;1.42;;
70433;SDS011;57876;47.792;12.960;2022-09-16T00:27:16;4.83;;;1.20;;
70433;SDS011;57876;47.792;12.960;2022-09-16T00:29:40;4.47;;;1.10;;
70433;SDS011;57876;47.792;12.960;2022-09-16T00:32:04;4.80;;;1.40;;
70433;SDS011;57876;47.792;12.960;2022-09-16T00:34:29;5.43;;;1.40;;
70433;SDS011;57876;47.792;12.960;2022-09-16T00:36:53;5.53;;;1.50;;
70433;SDS011;57876;47.792;12.960;2022-09-16T00:39:18;4.63;;;1.30;;
70433;SDS011;57876;47.792;12.960;2022-09-16T00:41:42;5.00;;;1.50;;
70433;SDS011;57876;47.792;12.960;2022-09-16T00:47:08;4.97;;;1.45;;
70433;SDS011;57876;47.792;12.960;2022-09-16T00:49:33;5.10;;;1.30;;
70433;SDS011;57876;47.792;12.960;2022-09-16T00:51:58;4.85;;;1.42;;
70433;SDS011;57876;47.792;12.960;2022-09-16T00:54:26;4.50;;;1.30;;
70433;SDS011;57876;47.792;12.960;2022-09-16T00:56:52;4.55;;;1.40;;
70433;SDS011;57876;47.792;12.960;2022-09-16T00:59:20;4.95;;;1.45;;
70433;SDS011;57876;47.792;12.960;2022-09-16T01:01:49;4.50;;;1.40;;
70433;SDS011;57876;47.792;12.960;2022-09-16T01:04:17;5.00;;;1.67;;
70433;SDS011;57876;47.792;12.960;2022-09-16T01:06:49;4.30;;;1.23;;
70433;SDS011;57876;47.792;12.960;2022-09-16T01:09:14;4.97;;;1.30;;
70433;SDS011;57876;47.792;12.960;2022-09-16T01:11:39;5.65;;;1.33;;
70433;SDS011;57876;47.792;12.960;2022-09-16T01:14:04;4.43;;;1.23;;
70433;SDS011;57876;47.792;12.960;2022-09-16T01:17:02;4.93;;;1.60;;
70433;SDS011;57876;47.792;12.960;2022-09-16T01:28:16;4.38;;;1.20;;
70433;SDS011;57876;47.792;12.960;2022-09-16T01:30:47;4.85;;;1.35;;
70433;SDS011;57876;47.792;12.960;2022-09-16T01:39:04;4.90;;;1.40;;
70433;SDS011;57876;47.792;12.960;2022-09-16T01:44:06;4.60;;;1.35;;
70433;SDS011;57876;47.792;12.960;2022-09-16T01:49:12;4.78;;;1.40;;
70433;SDS011;57876;47.792;12.960;2022-09-16T01:54:06;5.50;;;1.30;;
70433;SDS011;57876;47.792;12.960;2022-09-16T01:56:36;4.60;;;1.30;;
70433;SDS011;57876;47.792;12.960;2022-09-16T01:59:08;4.60;;;1.30;;
70433;SDS011;57876;47.792;12.960;2022-09-16T02:04:12;5.93;;;1.43;;
70433;SDS011;57876;47.792;12.960;2022-09-16T02:06:40;5.47;;;1.50;;
70433;SDS011;57876;47.792;12.960;2022-09-16T02:09:08;6.45;;;1.52;;
70433;SDS011;57876;47.792;12.960;2022-09-16T02:11:38;4.35;;;1.40;;
70433;SDS011;57876;47.792;12.960;2022-09-16T02:14:04;4.93;;;1.33;;
70433;SDS011;57876;47.792;12.960;2022-09-16T02:16:39;4.57;;;1.50;;
70433;SDS011;57876;47.792;12.960;2022-09-16T02:19:09;5.30;;;1.40;;
70433;SDS011;57876;47.792;12.960;2022-09-16T02:21:38;5.57;;;1.60;;
70433;SDS011;57876;47.792;12.960;2022-09-16T02:24:06;4.80;;;1.58;;
70433;SDS011;57876;47.792;12.960;2022-09-16T02:26:36;4.65;;;1.50;;
70433;SDS011;57876;47.792;12.960;2022-09-16T02:29:06;4.53;;;1.30;;
70433;SDS011;57876;47.792;12.960;2022-09-16T02:31:37;5.43;;;1.48;;
70433;SDS011;57876;47.792;12.960;2022-09-16T02:34:04;5.47;;;1.60;;
70433;SDS011;57876;47.792;12.960;2022-09-16T02:36:42;5.07;;;1.60;;
70433;SDS011;57876;47.792;12.960;2022-09-16T02:39:13;4.80;;;1.40;;
70433;SDS011;57876;47.792;12.960;2022-09-16T02:41:41;5.15;;;1.60;;
70433;SDS011;57876;47.792;12.960;2022-09-16T02:44:06;4.90;;;1.60;;
70433;SDS011;57876;47.792;12.960;2022-09-16T02:54:21;6.13;;;1.70;;
70433;SDS011;57876;47.792;12.960;2022-09-16T02:56:52;5.32;;;1.55;;
70433;SDS011;57876;47.792;12.960;2022-09-16T02:59:17;5.57;;;1.73;;
70433;SDS011;57876;47.792;12.960;2022-09-16T03:01:43;6.30;;;1.67;;
70433;SDS011;57876;47.792;12.960;2022-09-16T03:04:10;4.80;;;1.58;;
70433;SDS011;57876;47.792;12.960;2022-09-16T03:06:37;5.45;;;1.52;;
70433;SDS011;57876;47.792;12.960;2022-09-16T03:09:03;5.33;;;1.70;;
70433;SDS011;57876;47.792;12.960;2022-09-16T03:26:14;9.10;;;2.33;;
70433;SDS011;57876;47.792;12.960;2022-09-16T03:28:25;6.50;;;2.20;;
70433;SDS011;57876;47.792;12.960;2022-09-16T03:33:26;6.93;;;2.00;;
70433;SDS011;57876;47.792;12.960;2022-09-16T03:35:52;8.63;;;2.20;;
70433;SDS011;57876;47.792;12.960;2022-09-16T03:38:21;5.22;;;2.10;;
70433;SDS011;57876;47.792;12.960;2022-09-16T03:40:47;5.20;;;2.00;;
70433;SDS011;57876;47.792;12.960;2022-09-16T03:43:12;5.82;;;2.00;;
70433;SDS011;57876;47.792;12.960;2022-09-16T03:45:39;6.03;;;1.90;;
70433;SDS011;57876;47.792;12.960;2022-09-16T03:48:05;6.63;;;2.05;;
70433;SDS011;57876;47.792;12.960;2022-09-16T03:50:30;5.47;;;1.95;;
70433;SDS011;57876;47.792;12.960;2022-09-16T03:52:54;6.03;;;2.07;;
70433;SDS011;57876;47.792;12.960;2022-09-16T03:55:18;6.53;;;1.80;;
70433;SDS011;57876;47.792;12.960;2022-09-16T03:57:43;6.27;;;2.10;;
70433;SDS011;57876;47.792;12.960;2022-09-16T04:00:07;5.57;;;1.70;;
70433;SDS011;57876;47.792;12.960;2022-09-16T04:02:32;5.88;;;1.80;;
70433;SDS011;57876;47.792;12.960;2022-09-16T04:04:57;6.93;;;1.70;;
70433;SDS011;57876;47.792;12.960;2022-09-16T04:07:21;6.93;;;1.90;;
70433;SDS011;57876;47.792;12.960;2022-09-16T04:09:45;5.30;;;1.70;;
70433;SDS011;57876;47.792;12.960;2022-09-16T04:12:10;5.43;;;1.80;;
70433;SDS011;57876;47.792;12.960;2022-09-16T04:14:34;6.47;;;1.77;;
70433;SDS011;57876;47.792;12.960;2022-09-16T04:16:59;5.37;;;1.80;;
70433;SDS011;57876;47.792;12.960;2022-09-16T04:19:24;5.68;;;1.88;;
70433;SDS011;57876;47.792;12.960;2022-09-16T04:21:48;5.67;;;1.90;;
70433;SDS011;57876;47.792;12.960;2022-09-16T04:24:12;5.03;;;1.93;;
70433;SDS011;57876;47.792;12.960;2022-09-16T04:26:37;6.03;;;2.00;;
70433;SDS011;57876;47.792;12.960;2022-09-16T04:29:01;7.20;;;2.13;;
70433;SDS011;57876;47.792;12.960;2022-09-16T04:31:26;6.30;;;1.73;;
70433;SDS011;57876;47.792;12.960;2022-09-16T04:33:50;4.97;;;1.87;;
70433;SDS011;57876;47.792;12.960;2022-09-16T04:36:15;5.50;;;1.87;;
70433;SDS011;57876;47.792;12.960;2022-09-16T04:38:42;5.32;;;2.10;;
70433;SDS011;57876;47.792;12.960;2022-09-16T04:41:19;6.25;;;2.00;;
70433;SDS011;57876;47.792;12.960;2022-09-16T04:43:44;5.30;;;2.03;;
70433;SDS011;57876;47.792;12.960;2022-09-16T04:46:10;5.50;;;1.77;;
70433;SDS011;57876;47.792;12.960;2022-09-16T04:48:35;5.47;;;2.00;;
70433;SDS011;57876;47.792;12.960;2022-09-16T04:51:06;6.03;;;1.77;;
70433;SDS011;57876;47.792;12.960;2022-09-16T04:53:33;5.37;;;1.93;;
70433;SDS011;57876;47.792;12.960;2022-09-16T04:56:06;6.28;;;2.30;;
70433;SDS011;57876;47.792;12.960;2022-09-16T04:58:30;6.07;;;1.80;;
70433;SDS011;57876;47.792;12.960;2022-09-16T05:00:55;5.20;;;1.80;;
70433;SDS011;57876;47.792;12.960;2022-09-16T05:03:19;5.60;;;2.00;;
70433;SDS011;57876;47.792;12.960;2022-09-16T05:05:44;5.45;;;2.20;;
70433;SDS011;57876;47.792;12.960;2022-09-16T05:08:08;5.87;;;1.97;;
70433;SDS011;57876;47.792;12.960;2022-09-16T05:10:32;5.57;;;2.20;;
70433;SDS011;57876;47.792;12.960;2022-09-16T05:12:57;6.87;;;2.40;;
70433;SDS011;57876;47.792;12.960;2022-09-16T05:15:21;7.90;;;2.20;;
70433;SDS011;57876;47.792;12.960;2022-09-16T05:17:46;5.75;;;2.10;;
70433;SDS011;57876;47.792;12.960;2022-09-16T05:20:11;5.97;;;2.10;;
70433;SDS011;57876;47.792;12.960;2022-09-16T05:22:37;5.85;;;2.10;;
70433;SDS011;57876;47.792;12.960;2022-09-16T05:25:02;7.03;;;2.30;;
70433;SDS011;57876;47.792;12.960;2022-09-16T05:27:28;7.63;;;2.60;;
70433;SDS011;57876;47.792;12.960;2022-09-16T05:29:54;7.40;;;2.38;;
70433;SDS011;57876;47.792;12.960;2022-09-16T05:32:18;5.70;;;2.33;;
70433;SDS011;57876;47.792;12.960;2022-09-16T05:34:43;5.93;;;2.20;;
70433;SDS011;57876;47.792;12.960;2022-09-16T05:37:07;6.10;;;2.40;;
70433;SDS011;57876;47.792;12.960;2022-09-16T05:39:31;6.07;;;2.23;;
70433;SDS011;57876;47.792;12.960;2022-09-16T05:41:57;5.90;;;2.28;;
70433;SDS011;57876;47.792;12.960;2022-09-16T05:44:23;5.70;;;2.20;;
70433;SDS011;57876;47.792;12.960;2022-09-16T05:46:48;6.80;;;2.10;;
70433;SDS011;57876;47.792;12.960;2022-09-16T05:49:13;5.93;;;2.40;;
70433;SDS011;57876;47.792;12.960;2022-09-16T05:51:43;7.63;;;2.25;;
70433;SDS011;57876;47.792;12.960;2022-09-16T05:54:08;5.73;;;2.07;;
70433;SDS011;57876;47.792;12.960;2022-09-16T05:56:32;6.00;;;2.00;;
70433;SDS011;57876;47.792;12.960;2022-09-16T05:58:57;5.43;;;2.20;;
70433;SDS011;57876;47.792;12.960;2022-09-16T06:01:24;5.72;;;2.40;;
70433;SDS011;57876;47.792;12.960;2022-09-16T06:03:50;6.30;;;2.27;;
70433;SDS011;57876;47.792;12.960;2022-09-16T06:06:25;5.80;;;2.40;;
70433;SDS011;57876;47.792;12.960;2022-09-16T06:08:51;6.80;;;2.20;;
70433;SDS011;57876;47.792;12.960;2022-09-16T06:11:19;6.45;;;2.22;;
70433;SDS011;57876;47.792;12.960;2022-09-16T06:13:43;5.90;;;2.03;;
70433;SDS011;57876;47.792;12.960;2022-09-16T06:16:08;9.17;;;2.30;;
70433;SDS011;57876;47.792;12.960;2022-09-16T06:18:33;6.20;;;2.30;;
70433;SDS011;57876;47.792;12.960;2022-09-16T06:21:03;5.60;;;2.40;;
70433;SDS011;57876;47.792;12.960;2022-09-16T06:23:31;6.72;;;2.50;;
70433;SDS011;57876;47.792;12.960;2022-09-16T06:26:13;6.03;;;2.40;;
70433;SDS011;57876;47.792;12.960;2022-09-16T06:28:39;6.68;;;2.03;;
70433;SDS011;57876;47.792;12.960;2022-09-16T06:31:05;6.57;;;2.53;;
70433;SDS011;57876;47.792;12.960;2022-09-16T06:33:31;5.82;;;2.40;;
70433;SDS011;57876;47.792;12.960;2022-09-16T06:35:56;7.07;;;2.20;;
70433;SDS011;57876;47.792;12.960;2022-09-16T06:38:21;6.83;;;2.20;;
70433;SDS011;57876;47.792;12.960;2022-09-16T06:40:45;6.67;;;2.37;;
70433;SDS011;57876;47.792;12.960;2022-09-16T06:43:10;6.43;;;2.30;;
70433;SDS011;57876;47.792;12.960;2022-09-16T06:45:34;6.93;;;2.67;;
70433;SDS011;57876;47.792;12.960;2022-09-16T06:47:59;8.17;;;2.50;;
70433;SDS011;57876;47.792;12.960;2022-09-16T06:50:24;6.80;;;2.47;;
70433;SDS011;57876;47.792;12.960;2022-09-16T06:52:51;6.20;;;2.47;;
70433;SDS011;57876;47.792;12.960;2022-09-16T06:55:15;6.75;;;2.47;;
70433;SDS011;57876;47.792;12.960;2022-09-16T06:57:40;7.22;;;2.70;;
70433;SDS011;57876;47.792;12.960;2022-09-16T07:00:04;8.43;;;2.80;;
70433;SDS011;57876;47.792;12.960;2022-09-16T07:02:29;6.65;;;2.60;;
70433;SDS011;57876;47.792;12.960;2022-09-16T07:04:54;7.57;;;2.70;;
70433;SDS011;57876;47.792;12.960;2022-09-16T07:07:18;5.47;;;2.30;;
70433;SDS011;57876;47.792;12.960;2022-09-16T07:09:42;6.00;;;2.30;;
70433;SDS011;57876;47.792;12.960;2022-09-16T07:12:07;6.97;;;2.43;;
70433;SDS011;57876;47.792;12.960;2022-09-16T07:14:31;5.80;;;2.33;;
70433;SDS011;57876;47.792;12.960;2022-09-16T07:16:56;7.03;;;2.47;;
70433;SDS011;57876;47.792;12.960;2022-09-16T07:19:21;7.88;;;2.60;;
70433;SDS011;57876;47.792;12.960;2022-09-16T07:21:46;6.27;;;2.33;;
70433;SDS011;57876;47.792;12.960;2022-09-16T07:24:11;6.70;;;2.40;;
70433;SDS011;57876;47.792;12.960;2022-09-16T07:26:37;7.30;;;2.47;;
70433;SDS011;57876;47.792;12.960;2022-09-16T07:29:03;7.00;;;2.40;;
70433;SDS011;57876;47.792;12.960;2022-09-16T07:31:30;7.10;;;2.60;;
70433;SDS011;57876;47.792;12.960;2022-09-16T07:33:57;6.03;;;2.63;;
70433;SDS011;57876;47.792;12.960;2022-09-16T07:36:23;6.30;;;2.50;;
70433;SDS011;57876;47.792;12.960;2022-09-16T07:38:49;7.35;;;2.78;;
70433;SDS011;57876;47.792;12.960;2022-09-16T07:41:16;7.03;;;2.75;;
70433;SDS011;57876;47.792;12.960;2022-09-16T07:43:45;8.38;;;2.50;;
70433;SDS011;57876;47.792;12.960;2022-09-16T07:46:10;6.37;;;2.20;;
70433;SDS011;57876;47.792;12.960;2022-09-16T07:48:36;6.90;;;2.40;;
70433;SDS011;57876;47.792;12.960;2022-09-16T07:51:08;8.57;;;2.67;;
70433;SDS011;57876;47.792;12.960;2022-09-16T07:53:35;8.65;;;3.00;;
70433;SDS011;57876;47.792;12.960;2022-09-16T07:56:03;6.13;;;2.40;;
70433;SDS011;57876;47.792;12.960;2022-09-16T07:58:30;6.03;;;2.33;;
70433;SDS011;57876;47.792;12.960;2022-09-16T08:00:55;6.45;;;2.58;;
70433;SDS011;57876;47.792;12.960;2022-09-16T08:03:20;6.93;;;2.50;;
70433;SDS011;57876;47.792;12.960;2022-09-16T08:05:44;7.27;;;3.07;;
70433;SDS011;57876;47.792;12.960;2022-09-16T08:08:09;6.03;;;2.50;;
70433;SDS011;57876;47.792;12.960;2022-09-16T08:10:33;6.37;;;2.20;;
70433;SDS011;57876;47.792;12.960;2022-09-16T08:12:59;5.90;;;2.40;;
70433;SDS011;57876;47.792;12.960;2022-09-16T08:15:24;6.20;;;2.67;;
70433;SDS011;57876;47.792;12.960;2022-09-16T08:17:48;8.00;;;2.73;;
70433;SDS011;57876;47.792;12.960;2022-09-16T08:20:12;6.20;;;2.38;;
70433;SDS011;57876;47.792;12.960;2022-09-16T08:22:37;5.73;;;2.40;;
70433;SDS011;57876;47.792;12.960;2022-09-16T08:25:01;6.33;;;2.13;;
70433;SDS011;57876;47.792;12.960;2022-09-16T08:27:26;6.90;;;2.40;;
70433;SDS011;57876;47.792;12.960;2022-09-16T08:29:51;6.40;;;2.63;;
70433;SDS011;57876;47.792;12.960;2022-09-16T08:32:15;7.80;;;2.43;;
70433;SDS011;57876;47.792;12.960;2022-09-16T08:34:39;6.43;;;2.33;;
70433;SDS011;57876;47.792;12.960;2022-09-16T08:37:04;5.83;;;2.47;;
70433;SDS011;57876;47.792;12.960;2022-09-16T08:39:28;6.90;;;2.67;;
70433;SDS011;57876;47.792;12.960;2022-09-16T08:44:32;7.68;;;2.60;;
70433;SDS011;57876;47.792;12.960;2022-09-16T08:47:01;5.75;;;2.38;;
70433;SDS011;57876;47.792;12.960;2022-09-16T08:51:57;6.60;;;2.83;;
70433;SDS011;57876;47.792;12.960;2022-09-16T08:54:25;6.22;;;2.42;;
70433;SDS011;57876;47.792;12.960;2022-09-16T08:57:12;6.57;;;2.60;;
70433;SDS011;57876;47.792;12.960;2022-09-16T08:59:43;6.63;;;2.80;;
70433;SDS011;57876;47.792;12.960;2022-09-16T09:02:26;6.30;;;2.37;;
70433;SDS011;57876;47.792;12.960;2022-09-16T09:05:31;6.72;;;2.72;;
70433;SDS011;57876;47.792;12.960;2022-09-16T09:18:55;7.53;;;2.92;;
70433;SDS011;57876;47.792;12.960;2022-09-16T09:26:44;6.00;;;2.58;;
70433;SDS011;57876;47.792;12.960;2022-09-16T09:29:19;6.43;;;2.70;;
70433;SDS011;57876;47.792;12.960;2022-09-16T09:40:08;8.25;;;2.95;;
70433;SDS011;57876;47.792;12.960;2022-09-16T09:42:53;7.70;;;3.00;;
70433;SDS011;57876;47.792;12.960;2022-09-16T09:45:29;6.50;;;2.63;;
70433;SDS011;57876;47.792;12.960;2022-09-16T09:47:59;5.95;;;2.78;;
70433;SDS011;57876;47.792;12.960;2022-09-16T09:53:32;7.65;;;2.75;;
70433;SDS011;57876;47.792;12.960;2022-09-16T09:56:23;7.07;;;2.90;;
70433;SDS011;57876;47.792;12.960;2022-09-16T10:01:26;7.72;;;2.92;;
70433;SDS011;57876;47.792;12.960;2022-09-16T10:03:51;5.57;;;2.20;;
70433;SDS011;57876;47.792;12.960;2022-09-16T10:06:18;6.43;;;2.70;;
70433;SDS011;57876;47.792;12.960;2022-09-16T10:08:50;7.10;;;2.80;;
70433;SDS011;57876;47.792;12.960;2022-09-16T10:11:21;6.70;;;2.70;;
70433;SDS011;57876;47.792;12.960;2022-09-16T10:13:54;6.03;;;2.33;;
70433;SDS011;57876;47.792;12.960;2022-09-16T10:16:21;6.95;;;2.75;;
70433;SDS011;57876;47.792;12.960;2022-09-16T10:19:00;7.25;;;2.70;;
70433;SDS011;57876;47.792;12.960;2022-09-16T10:21:38;7.03;;;2.75;;
70433;SDS011;57876;47.792;12.960;2022-09-16T10:24:05;8.00;;;3.13;;
70433;SDS011;57876;47.792;12.960;2022-09-16T10:26:43;8.43;;;2.90;;
70433;SDS011;57876;47.792;12.960;2022-09-16T10:29:15;8.63;;;2.80;;
70433;SDS011;57876;47.792;12.960;2022-09-16T10:31:40;6.78;;;2.47;;
70433;SDS011;57876;47.792;12.960;2022-09-16T10:34:12;7.03;;;2.97;;
70433;SDS011;57876;47.792;12.960;2022-09-16T10:36:42;6.50;;;2.72;;
70433;SDS011;57876;47.792;12.960;2022-09-16T10:39:16;7.73;;;2.83;;
70433;SDS011;57876;47.792;12.960;2022-09-16T10:41:45;7.50;;;2.75;;
70433;SDS011;57876;47.792;12.960;2022-09-16T10:44:14;6.47;;;2.60;;
70433;SDS011;57876;47.792;12.960;2022-09-16T10:46:51;8.88;;;2.75;;
70433;SDS011;57876;47.792;12.960;2022-09-16T10:49:17;6.40;;;2.97;;
70433;SDS011;57876;47.792;12.960;2022-09-16T10:51:45;7.25;;;2.75;;
70433;SDS011;57876;47.792;12.960;2022-09-16T10:54:21;7.20;;;2.73;;
70433;SDS011;57876;47.792;12.960;2022-09-16T10:56:49;7.10;;;3.10;;
70433;SDS011;57876;47.792;12.960;2022-09-16T10:59:14;6.50;;;2.83;;
70433;SDS011;57876;47.792;12.960;2022-09-16T11:09:58;8.20;;;2.80;;
70433;SDS011;57876;47.792;12.960;2022-09-16T11:15:34;6.95;;;2.80;;
70433;SDS011;57876;47.792;12.960;2022-09-16T11:18:09;6.72;;;2.67;;
70433;SDS011;57876;47.792;12.960;2022-09-16T11:26:08;6.45;;;2.50;;
70433;SDS011;57876;47.792;12.960;2022-09-16T11:31:19;7.18;;;3.28;;
70433;SDS011;57876;47.792;12.960;2022-09-16T11:42:14;7.28;;;3.47;;
70433;SDS011;57876;47.792;12.960;2022-09-16T11:55:54;7.72;;;3.30;;
70433;SDS011;57876;47.792;12.960;2022-09-16T12:00:52;7.27;;;3.23;;
70433;SDS011;57876;47.792;12.960;2022-09-16T12:06:03;7.35;;;3.40;;
70433;SDS011;57876;47.792;12.960;2022-09-16T12:08:44;9.45;;;3.50;;
70433;SDS011;57876;47.792;12.960;2022-09-16T12:13:51;6.93;;;3.03;;
70433;SDS011;57876;47.792;12.960;2022-09-16T12:16:26;8.15;;;3.13;;
70433;SDS011;57876;47.792;12.960;2022-09-16T12:18:57;7.95;;;3.35;;
70433;SDS011;57876;47.792;12.960;2022-09-16T12:21:28;8.18;;;3.58;;
70433;SDS011;57876;47.792;12.960;2022-09-16T12:24:02;7.80;;;3.38;;
70433;SDS011;57876;47.792;12.960;2022-09-16T12:26:31;8.53;;;3.43;;
70433;SDS011;57876;47.792;12.960;2022-09-16T12:29:09;7.22;;;3.47;;
70433;SDS011;57876;47.792;12.960;2022-09-16T12:31:42;8.20;;;3.40;;
70433;SDS011;57876;47.792;12.960;2022-09-16T12:39:44;7.47;;;3.63;;
70433;SDS011;57876;47.792;12.960;2022-09-16T12:45:26;9.43;;;4.20;;
70433;SDS011;57876;47.792;12.960;2022-09-16T12:51:10;8.98;;;4.00;;
70433;SDS011;57876;47.792;12.960;2022-09-16T12:53:46;7.43;;;3.50;;
70433;SDS011;57876;47.792;12.960;2022-09-16T12:56:32;8.43;;;3.80;;
70433;SDS011;57876;47.792;12.960;2022-09-16T13:01:57;8.25;;;3.75;;
70433;SDS011;57876;47.792;12.960;2022-09-16T13:04:34;8.18;;;3.75;;
70433;SDS011;57876;47.792;12.960;2022-09-16T13:07:03;8.23;;;4.00;;
70433;SDS011;57876;47.792;12.960;2022-09-16T13:14:24;7.97;;;3.78;;
70433;SDS011;57876;47.792;12.960;2022-09-16T13:16:56;7.78;;;3.95;;
70433;SDS011;57876;47.792;12.960;2022-09-16T13:21:59;8.23;;;3.85;;
70433;SDS011;57876;47.792;12.960;2022-09-16T13:24:37;7.90;;;3.72;;
70433;SDS011;57876;47.792;12.960;2022-09-16T13:29:50;8.27;;;3.85;;
70433;SDS011;57876;47.792;12.960;2022-09-16T13:32:27;7.93;;;3.63;;
70433;SDS011;57876;47.792;12.960;2022-09-16T13:35:02;8.57;;;3.60;;
70433;SDS011;57876;47.792;12.960;2022-09-16T13:37:28;7.53;;;3.50;;
70433;SDS011;57876;47.792;12.960;2022-09-16T13:39:53;7.93;;;3.83;;
70433;SDS011;57876;47.792;12.960;2022-09-16T13:42:18;8.30;;;3.60;;
70433;SDS011;57876;47.792;12.960;2022-09-16T13:44:44;7.17;;;3.50;;
70433;SDS011;57876;47.792;12.960;2022-09-16T13:49:32;7.37;;;3.67;;
70433;SDS011;57876;47.792;12.960;2022-09-16T13:52:07;8.10;;;3.33;;
70433;SDS011;57876;47.792;12.960;2022-09-16T13:54:39;10.10;;;3.53;;
70433;SDS011;57876;47.792;12.960;2022-09-16T13:59:43;9.77;;;3.90;;
70433;SDS011;57876;47.792;12.960;2022-09-16T14:05:10;10.13;;;3.00;;
70433;SDS011;57876;47.792;12.960;2022-09-16T14:10:17;6.72;;;2.80;;
70433;SDS011;57876;47.792;12.960;2022-09-16T14:15:34;7.45;;;2.92;;
70433;SDS011;57876;47.792;12.960;2022-09-16T14:18:02;7.80;;;2.83;;
70433;SDS011;57876;47.792;12.960;2022-09-16T14:20:27;8.30;;;3.13;;
70433;SDS011;57876;47.792;12.960;2022-09-16T14:23:03;7.28;;;2.80;;
70433;SDS011;57876;47.792;12.960;2022-09-16T14:25:30;9.00;;;3.47;;
70433;SDS011;57876;47.792;12.960;2022-09-16T14:28:30;7.30;;;3.13;;
70433;SDS011;57876;47.792;12.960;2022-09-16T14:30:55;7.72;;;3.28;;
70433;SDS011;57876;47.792;12.960;2022-09-16T14:33:22;8.13;;;3.40;;
70433;SDS011;57876;47.792;12.960;2022-09-16T14:35:59;7.85;;;3.38;;
70433;SDS011;57876;47.792;12.960;2022-09-16T14:38:41;7.53;;;3.30;;
70433;SDS011;57876;47.792;12.960;2022-09-16T14:41:09;7.80;;;2.90;;
70433;SDS011;57876;47.792;12.960;2022-09-16T14:43:36;6.60;;;3.10;;
70433;SDS011;57876;47.792;12.960;2022-09-16T14:46:01;7.22;;;2.95;;
70433;SDS011;57876;47.792;12.960;2022-09-16T14:48:28;7.55;;;2.95;;
70433;SDS011;57876;47.792;12.960;2022-09-16T14:50:56;7.68;;;2.90;;
70433;SDS011;57876;47.792;12.960;2022-09-16T14:53:26;6.60;;;2.40;;
70433;SDS011;57876;47.792;12.960;2022-09-16T14:55:59;6.40;;;2.30;;
70433;SDS011;57876;47.792;12.960;2022-09-16T14:58:25;6.33;;;2.30;;
70433;SDS011;57876;47.792;12.960;2022-09-16T15:00:53;6.88;;;2.30;;
70433;SDS011;57876;47.792;12.960;2022-09-16T15:03:36;5.40;;;1.95;;
70433;SDS011;57876;47.792;12.960;2022-09-16T15:06:17;6.05;;;1.92;;
70433;SDS011;57876;47.792;12.960;2022-09-16T15:08:48;5.68;;;1.85;;
70433;SDS011;57876;47.792;12.960;2022-09-16T15:11:18;5.80;;;2.10;;
70433;SDS011;57876;47.792;12.960;2022-09-16T15:13:46;5.88;;;1.80;;
70433;SDS011;57876;47.792;12.960;2022-09-16T15:16:13;6.43;;;2.22;;
70433;SDS011;57876;47.792;12.960;2022-09-16T15:18:51;5.30;;;2.00;;
70433;SDS011;57876;47.792;12.960;2022-09-16T15:21:22;5.88;;;2.10;;
70433;SDS011;57876;47.792;12.960;2022-09-16T15:23:50;6.23;;;1.90;;
70433;SDS011;57876;47.792;12.960;2022-09-16T15:26:20;4.93;;;1.70;;
70433;SDS011;57876;47.792;12.960;2022-09-16T15:28:49;4.90;;;1.70;;
70433;SDS011;57876;47.792;12.960;2022-09-16T15:31:24;6.28;;;1.88;;
70433;SDS011;57876;47.792;12.960;2022-09-16T15:34:00;5.50;;;2.00;;
70433;SDS011;57876;47.792;12.960;2022-09-16T15:36:31;5.40;;;2.00;;
70433;SDS011;57876;47.792;12.960;2022-09-16T15:38:56;5.80;;;1.90;;
70433;SDS011;57876;47.792;12.960;2022-09-16T15:41:21;5.20;;;1.77;;
70433;SDS011;57876;47.792;12.960;2022-09-16T15:43:45;5.33;;;1.70;;
70433;SDS011;57876;47.792;12.960;2022-09-16T15:46:20;5.50;;;1.57;;
70433;SDS011;57876;47.792;12.960;2022-09-16T15:48:48;4.65;;;1.40;;
70433;SDS011;57876;47.792;12.960;2022-09-16T15:51:23;5.72;;;1.52;;
70433;SDS011;57876;47.792;12.960;2022-09-16T15:54:05;5.10;;;1.58;;
70433;SDS011;57876;47.792;12.960;2022-09-16T15:59:34;4.88;;;1.70;;
70433;SDS011;57876;47.792;12.960;2022-09-16T16:02:04;5.10;;;1.63;;
70433;SDS011;57876;47.792;12.960;2022-09-16T16:04:42;5.18;;;1.52;;
70433;SDS011;57876;47.792;12.960;2022-09-16T16:07:07;6.33;;;2.10;;
70433;SDS011;57876;47.792;12.960;2022-09-16T16:09:33;7.07;;;2.60;;
70433;SDS011;57876;47.792;12.960;2022-09-16T16:12:01;6.77;;;2.90;;
70433;SDS011;57876;47.792;12.960;2022-09-16T16:14:28;6.32;;;2.60;;
70433;SDS011;57876;47.792;12.960;2022-09-16T16:16:58;5.78;;;2.03;;
70433;SDS011;57876;47.792;12.960;2022-09-16T16:19:25;5.25;;;1.90;;
70433;SDS011;57876;47.792;12.960;2022-09-16T16:21:49;5.50;;;2.10;;
70433;SDS011;57876;47.792;12.960;2022-09-16T16:24:14;5.60;;;2.00;;
70433;SDS011;57876;47.792;12.960;2022-09-16T16:26:39;6.25;;;2.00;;
70433;SDS011;57876;47.792;12.960;2022-09-16T16:29:04;6.70;;;1.80;;
70433;SDS011;57876;47.792;12.960;2022-09-16T16:31:28;4.80;;;1.70;;
70433;SDS011;57876;47.792;12.960;2022-09-16T16:33:52;5.50;;;1.43;;
70433;SDS011;57876;47.792;12.960;2022-09-16T16:36:17;5.03;;;1.63;;
70433;SDS011;57876;47.792;12.960;2022-09-16T16:38:43;4.63;;;1.40;;
70433;SDS011;57876;47.792;12.960;2022-09-16T16:41:09;4.78;;;1.70;;
70433;SDS011;57876;47.792;12.960;2022-09-16T16:43:35;4.82;;;1.52;;
70433;SDS011;57876;47.792;12.960;2022-09-16T16:45:59;5.00;;;1.60;;
70433;SDS011;57876;47.792;12.960;2022-09-16T16:48:25;4.70;;;1.60;;
70433;SDS011;57876;47.792;12.960;2022-09-16T16:50:57;4.55;;;1.40;;
70433;SDS011;57876;47.792;12.960;2022-09-16T16:53:26;4.93;;;1.80;;
70433;SDS011;57876;47.792;12.960;2022-09-16T16:55:51;4.97;;;1.83;;
70433;SDS011;57876;47.792;12.960;2022-09-16T16:58:16;5.50;;;1.70;;
70433;SDS011;57876;47.792;12.960;2022-09-16T17:00:40;5.03;;;1.70;;
70433;SDS011;57876;47.792;12.960;2022-09-16T17:03:05;5.93;;;1.70;;
70433;SDS011;57876;47.792;12.960;2022-09-16T17:05:29;4.90;;;1.70;;
70433;SDS011;57876;47.792;12.960;2022-09-16T17:07:53;5.30;;;1.83;;
70433;SDS011;57876;47.792;12.960;2022-09-16T17:10:18;4.67;;;1.50;;
70433;SDS011;57876;47.792;12.960;2022-09-16T17:12:42;5.30;;;1.90;;
70433;SDS011;57876;47.792;12.960;2022-09-16T17:15:08;5.15;;;1.80;;
70433;SDS011;57876;47.792;12.960;2022-09-16T17:17:32;5.00;;;1.57;;
70433;SDS011;57876;47.792;12.960;2022-09-16T17:19:57;5.00;;;1.60;;
70433;SDS011;57876;47.792;12.960;2022-09-16T17:22:21;5.43;;;1.50;;
70433;SDS011;57876;47.792;12.960;2022-09-16T17:24:46;4.90;;;1.50;;
70433;SDS011;57876;47.792;12.960;2022-09-16T17:27:10;5.07;;;1.70;;
70433;SDS011;57876;47.792;12.960;2022-09-16T17:29:36;4.63;;;1.40;;
70433;SDS011;57876;47.792;12.960;2022-09-16T17:32:00;4.43;;;1.33;;
70433;SDS011;57876;47.792;12.960;2022-09-16T17:34:25;5.13;;;1.43;;